Roger Revelle — KAOU — position and weather

sailwx.info

Track history (hours):
 
Tides and Currents Weather Stations Pressure Air Temp Water Temp Dewpoint Dewpoint Depression Visibility Wind Speed Wind Dir Waves Ship Positions

Oceanographic research ship Roger Revelle (USA)

Detailed information on ship capabilities available from University of Delaware's Ocean Information Center.

Owner: REGENTS OF THE UNIVERSITY OF CALIFORNIA, OAKLAND, CA. More information available from US FCC via Universal Licensing System.

Last reported at 2020-Jul-08 10:58 UTC. Time now 2020-Jul-08 11:53 UTC.
Position N 32°42' W 117°14'.

Type: Ship. MMSI: 367800100.

Date/timePositionNaut miles runAvg speedWind from/ knotsBaromVisibWave heightAir tempDewpointWater temp
2020-Jul-08 10:58N 32°42' W 117°14'0 0.0
2020-Jul-08 05:28N 32°42' W 117°14'0 0.0
2020-Jul-08 02:58N 32°42' W 117°14'0 0.0
2020-Jul-07 22:58N 32°42' W 117°14'0 0.0
2020-Jul-07 21:58N 32°42' W 117°14'0 0.0
2020-Jul-07 20:28N 32°42' W 117°14'4 2.3
2020-Jul-07 18:31N 32°38' W 117°15'14 5.6
2020-Jul-07 16:01N 32°52' W 117°16'0 0.3
2020-Jul-07 15:00N 32°52' W 117°17'0 0.2
2020-Jul-07 14:00N 32°52' W 117°17'0 0.3
2020-Jul-07 13:00N 32°53' W 117°16'9 5.8
2020-Jul-07 11:30N 32°56' W 117°26'4 8.9
2020-Jul-07 11:01N 32°57' W 117°31'33 9.4
2020-Jul-07 07:30N 33°16' W 118°03'19 9.5
2020-Jul-07 05:30N 33°26' W 118°22'5 9.7
2020-Jul-07 05:00N 33°29' W 118°27'1510.0
2020-Jul-07 03:30N 33°37' W 118°43'510.7
2020-Jul-07 03:00N 33°39' W 118°48'3110.3
2020-Jul-07 00:01N 33°56' W 119°20'14 9.4
2020-Jul-06 22:30N 34°07' W 119°29'35 9.9
2020-Jul-06 18:58N 34°25' W 120°06'5 9.9
2020-Jul-06 18:28N 34°25' W 120°12'9 9.5
2020-Jul-06 17:29N 34°25' W 120°23'9511.7
2020-Jul-06 09:21N 35°33' W 121°43'2212.7
2020-Jul-06 07:35N 35°49' W 122°03'3911.6
2020-Jul-06 04:12N 36°17' W 122°36'2612.3
2020-Jul-06 02:04N 36°40' W 122°51'812.8
2020-Jul-06 01:28N 36°47' W 122°55'4512.9
2020-Jul-05 22:00N 37°28' W 123°17'2512.7
2020-Jul-05 20:01N 37°52' W 123°29'5112.7
2020-Jul-05 16:00N 38°42' W 123°41'712.7
2020-Jul-05 15:30N 38°48' W 123°45'44412.2
2020-Jul-04 03:00N 46°11' W 124°11'3 3.1
2020-Jul-04 02:00N 46°09' W 124°14'8 1.5
2020-Jul-03 20:42N 46°06' W 124°24'0 0.2
2020-Jul-03 17:59N 46°06' W 124°24'1 0.5
2020-Jul-03 16:30N 46°07' W 124°24'0 0.2
2020-Jul-03 15:52N 46°07' W 124°23'512.9
2020-Jul-03 15:30N 46°10' W 124°18'1212.4
2020-Jul-03 14:30N 46°15' W 124°02'714.3
2020-Jul-03 14:01N 46°11' W 123°54'4 8.0
2020-Jul-03 13:28N 46°12' W 123°48'0 0.0
2020-Jul-03 10:28N 46°12' W 123°48'0 0.1
2020-Jul-03 09:58N 46°12' W 123°48'0 0.0
2020-Jul-03 09:25N 46°12' W 123°48'0 0.1
2020-Jul-03 08:55N 46°12' W 123°48'0 0.0
2020-Jul-03 08:28N 46°12' W 123°48'0 0.0
2020-Jul-03 06:25N 46°12' W 123°48'0 0.0
2020-Jul-03 03:58N 46°12' W 123°48'0 0.0
2020-Jul-03 02:58N 46°12' W 123°48'0 0.1
2020-Jul-03 02:30N 46°12' W 123°48'49 7.9
2020-Jul-02 20:18N 45°47' W 122°47'1011.9
2020-Jul-02 19:28N 45°37' W 122°47'4 4.0
2020-Jul-02 18:22N 45°34' W 122°43'0 0.0
2020-Jul-02 15:58N 45°34' W 122°43'0 0.0
2020-Jul-02 14:28N 45°34' W 122°43'0 0.0
2020-Jul-02 11:28N 45°34' W 122°43'0 0.0
2020-Jul-02 10:58N 45°34' W 122°43'0 0.0
2020-Jul-02 10:28N 45°34' W 122°43'0 0.0
2020-Jul-02 09:28N 45°34' W 122°43'0 0.0
2020-Jul-02 08:58N 45°34' W 122°43'0 0.0
2020-Jul-02 06:28N 45°34' W 122°43'0 0.0
2020-Jul-02 03:58N 45°34' W 122°43'0 0.0
2020-Jul-02 03:28N 45°34' W 122°43'0 0.0
2020-Jul-02 02:28N 45°34' W 122°43'0 0.0
2020-Jul-02 01:28N 45°34' W 122°43'0 0.0
2020-Jul-01 23:28N 45°34' W 122°43'0 0.0
2020-Jul-01 18:02N 45°34' W 122°43'0 0.0
2020-Jul-01 13:26N 45°34' W 122°43'0 0.0
2020-Jul-01 05:26N 45°34' W 122°43'0 0.0
2020-Jul-01 03:56N 45°34' W 122°43'0 0.0
2020-Jul-01 02:26N 45°34' W 122°43'0 0.0
2020-Jun-30 23:56N 45°34' W 122°43'0 0.0
2020-Jun-30 21:25N 45°34' W 122°43'0 0.0
2020-Jun-30 18:26N 45°34' W 122°43'0 0.0
2020-Jun-30 17:55N 45°34' W 122°43'0 0.0
2020-Jun-30 17:25N 45°34' W 122°43'0 0.0
2020-Jun-30 16:13N 45°34' W 122°43'0 0.0
2020-Jun-30 15:25N 45°34' W 122°43'0 0.0
2020-Jun-30 14:25N 45°34' W 122°43'0 0.0
2020-Jun-30 13:25N 45°34' W 122°43'0 0.0
2020-Jun-30 11:49N 45°34' W 122°43'0 0.0
2020-Jun-30 07:25N 45°34' W 122°43'0 0.0
2020-Jun-30 06:25N 45°34' W 122°43'0 0.0
2020-Jun-30 03:25N 45°34' W 122°43'0 0.0
2020-Jun-30 02:25N 45°34' W 122°43'0 0.0
2020-Jun-30 00:25N 45°34' W 122°43'0 0.0
2020-Jun-29 22:55N 45°34' W 122°43'0 0.0
2020-Jun-29 22:25N 45°34' W 122°43'0 0.0
2020-Jun-29 21:25N 45°34' W 122°43'0 0.0
2020-Jun-29 16:25N 45°34' W 122°43'0 0.0
2020-Jun-29 15:31N 45°34' W 122°43'0 0.0
2020-Jun-29 13:37N 45°34' W 122°43'0 0.0
2020-Jun-29 13:25N 45°34' W 122°43'0 0.0
2020-Jun-29 06:55N 45°34' W 122°43'0 0.0
2020-Jun-29 05:25N 45°34' W 122°43'0 0.0
2020-Jun-29 04:25N 45°34' W 122°43'0 0.0
2020-Jun-29 00:25N 45°34' W 122°43'0 0.0
2020-Jun-28 23:25N 45°34' W 122°43'0 0.0
2020-Jun-28 22:25N 45°34' W 122°43'0 0.0
2020-Jun-28 21:55N 45°34' W 122°43'0 0.0
2020-Jun-28 21:25N 45°34' W 122°43'0 0.0
2020-Jun-28 18:25N 45°34' W 122°43'0 0.0
2020-Jun-28 14:25N 45°34' W 122°43'0 0.0
2020-Jun-28 13:25N 45°34' W 122°43'0 0.0
2020-Jun-28 11:55N 45°34' W 122°43'  
Track history (hours):
 
Tides and Currents Weather Stations Pressure Air Temp Water Temp Dewpoint Dewpoint Depression Visibility Wind Speed Wind Dir Waves Ship Positions

Oceanographic research ship Roger Revelle (USA)

Detailed information on ship capabilities available from University of Delaware's Ocean Information Center.

Owner: REGENTS OF THE UNIVERSITY OF CALIFORNIA, OAKLAND, CA. More information available from US FCC via Universal Licensing System.

Last reported at 2020-Jul-08 10:58 UTC. Time now 2020-Jul-08 11:53 UTC.
Position N 32°42' W 117°14'.

Type: Ship. MMSI: 367800100.

Date/timePositionNaut miles runAvg speedWind from/ knotsBaromVisibWave heightAir tempDewpointWater temp
2020-Jul-08 10:58N 32°42' W 117°14'0 0.0
2020-Jul-08 05:28N 32°42' W 117°14'0 0.0
2020-Jul-08 02:58N 32°42' W 117°14'0 0.0
2020-Jul-07 22:58N 32°42' W 117°14'0 0.0
2020-Jul-07 21:58N 32°42' W 117°14'0 0.0
2020-Jul-07 20:28N 32°42' W 117°14'4 2.3
2020-Jul-07 18:31N 32°38' W 117°15'14 5.6
2020-Jul-07 16:01N 32°52' W 117°16'0 0.3
2020-Jul-07 15:00N 32°52' W 117°17'0 0.2
2020-Jul-07 14:00N 32°52' W 117°17'0 0.3
2020-Jul-07 13:00N 32°53' W 117°16'9 5.8
2020-Jul-07 11:30N 32°56' W 117°26'4 8.9
2020-Jul-07 11:01N 32°57' W 117°31'33 9.4
2020-Jul-07 07:30N 33°16' W 118°03'19 9.5
2020-Jul-07 05:30N 33°26' W 118°22'5 9.7
2020-Jul-07 05:00N 33°29' W 118°27'1510.0
2020-Jul-07 03:30N 33°37' W 118°43'510.7
2020-Jul-07 03:00N 33°39' W 118°48'3110.3
2020-Jul-07 00:01N 33°56' W 119°20'14 9.4
2020-Jul-06 22:30N 34°07' W 119°29'35 9.9
2020-Jul-06 18:58N 34°25' W 120°06'5 9.9
2020-Jul-06 18:28N 34°25' W 120°12'9 9.5
2020-Jul-06 17:29N 34°25' W 120°23'9511.7
2020-Jul-06 09:21N 35°33' W 121°43'2212.7
2020-Jul-06 07:35N 35°49' W 122°03'3911.6
2020-Jul-06 04:12N 36°17' W 122°36'2612.3
2020-Jul-06 02:04N 36°40' W 122°51'812.8
2020-Jul-06 01:28N 36°47' W 122°55'4512.9
2020-Jul-05 22:00N 37°28' W 123°17'2512.7
2020-Jul-05 20:01N 37°52' W 123°29'5112.7
2020-Jul-05 16:00N 38°42' W 123°41'712.7
2020-Jul-05 15:30N 38°48' W 123°45'44412.2
2020-Jul-04 03:00N 46°11' W 124°11'3 3.1
2020-Jul-04 02:00N 46°09' W 124°14'8 1.5
2020-Jul-03 20:42N 46°06' W 124°24'0 0.2
2020-Jul-03 17:59N 46°06' W 124°24'1 0.5
2020-Jul-03 16:30N 46°07' W 124°24'0 0.2
2020-Jul-03 15:52N 46°07' W 124°23'512.9
2020-Jul-03 15:30N 46°10' W 124°18'1212.4
2020-Jul-03 14:30N 46°15' W 124°02'714.3
2020-Jul-03 14:01N 46°11' W 123°54'4 8.0
2020-Jul-03 13:28N 46°12' W 123°48'0 0.0
2020-Jul-03 10:28N 46°12' W 123°48'0 0.1
2020-Jul-03 09:58N 46°12' W 123°48'0 0.0
2020-Jul-03 09:25N 46°12' W 123°48'0 0.1
2020-Jul-03 08:55N 46°12' W 123°48'0 0.0
2020-Jul-03 08:28N 46°12' W 123°48'0 0.0
2020-Jul-03 06:25N 46°12' W 123°48'0 0.0
2020-Jul-03 03:58N 46°12' W 123°48'0 0.0
2020-Jul-03 02:58N 46°12' W 123°48'0 0.1
2020-Jul-03 02:30N 46°12' W 123°48'49 7.9
2020-Jul-02 20:18N 45°47' W 122°47'1011.9
2020-Jul-02 19:28N 45°37' W 122°47'4 4.0
2020-Jul-02 18:22N 45°34' W 122°43'0 0.0
2020-Jul-02 15:58N 45°34' W 122°43'0 0.0
2020-Jul-02 14:28N 45°34' W 122°43'0 0.0
2020-Jul-02 11:28N 45°34' W 122°43'0 0.0
2020-Jul-02 10:58N 45°34' W 122°43'0 0.0
2020-Jul-02 10:28N 45°34' W 122°43'0 0.0
2020-Jul-02 09:28N 45°34' W 122°43'0 0.0
2020-Jul-02 08:58N 45°34' W 122°43'0 0.0
2020-Jul-02 06:28N 45°34' W 122°43'0 0.0
2020-Jul-02 03:58N 45°34' W 122°43'0 0.0
2020-Jul-02 03:28N 45°34' W 122°43'0 0.0
2020-Jul-02 02:28N 45°34' W 122°43'0 0.0
2020-Jul-02 01:28N 45°34' W 122°43'0 0.0
2020-Jul-01 23:28N 45°34' W 122°43'0 0.0
2020-Jul-01 18:02N 45°34' W 122°43'0 0.0
2020-Jul-01 13:26N 45°34' W 122°43'0 0.0
2020-Jul-01 05:26N 45°34' W 122°43'0 0.0
2020-Jul-01 03:56N 45°34' W 122°43'0 0.0
2020-Jul-01 02:26N 45°34' W 122°43'0 0.0
2020-Jun-30 23:56N 45°34' W 122°43'0 0.0
2020-Jun-30 21:25N 45°34' W 122°43'0 0.0
2020-Jun-30 18:26N 45°34' W 122°43'0 0.0
2020-Jun-30 17:55N 45°34' W 122°43'0 0.0
2020-Jun-30 17:25N 45°34' W 122°43'0 0.0
2020-Jun-30 16:13N 45°34' W 122°43'0 0.0
2020-Jun-30 15:25N 45°34' W 122°43'0 0.0
2020-Jun-30 14:25N 45°34' W 122°43'0 0.0
2020-Jun-30 13:25N 45°34' W 122°43'0 0.0
2020-Jun-30 11:49N 45°34' W 122°43'0 0.0
2020-Jun-30 07:25N 45°34' W 122°43'0 0.0
2020-Jun-30 06:25N 45°34' W 122°43'0 0.0
2020-Jun-30 03:25N 45°34' W 122°43'0 0.0
2020-Jun-30 02:25N 45°34' W 122°43'0 0.0
2020-Jun-30 00:25N 45°34' W 122°43'0 0.0
2020-Jun-29 22:55N 45°34' W 122°43'0 0.0
2020-Jun-29 22:25N 45°34' W 122°43'0 0.0
2020-Jun-29 21:25N 45°34' W 122°43'0 0.0
2020-Jun-29 16:25N 45°34' W 122°43'0 0.0
2020-Jun-29 15:31N 45°34' W 122°43'0 0.0
2020-Jun-29 13:37N 45°34' W 122°43'0 0.0
2020-Jun-29 13:25N 45°34' W 122°43'0 0.0
2020-Jun-29 06:55N 45°34' W 122°43'0 0.0
2020-Jun-29 05:25N 45°34' W 122°43'0 0.0
2020-Jun-29 04:25N 45°34' W 122°43'0 0.0
2020-Jun-29 00:25N 45°34' W 122°43'0 0.0
2020-Jun-28 23:25N 45°34' W 122°43'0 0.0
2020-Jun-28 22:25N 45°34' W 122°43'0 0.0
2020-Jun-28 21:55N 45°34' W 122°43'0 0.0
2020-Jun-28 21:25N 45°34' W 122°43'0 0.0
2020-Jun-28 18:25N 45°34' W 122°43'0 0.0
2020-Jun-28 14:25N 45°34' W 122°43'0 0.0
2020-Jun-28 13:25N 45°34' W 122°43'0 0.0
2020-Jun-28 11:55N 45°34' W 122°43'  

Dump ship's entire track history